Montezuma Creek, Utah
Current Conditions -  °F | °C
As of 8:35 AM on Friday 24 Oct 2014 (Local Time) from KBDG Reporting Station
Clear Clear  
Wind Chill: 49°   Ceiling: Unl
Heat Index: 49°   Visibility: 10mi
Dew Point: 32°   Wind: 3mph
Humidity: 53%   Direction: 20°NNE
Pressure: 30.42"   Gusts: NA
Location:  37.26°N, 109.31°W
Report Text: KBDG 241435Z AUTO 02003KT 10SM CLR 09/00 A3042 RMK AO1 T00930002
Loading
Personal Weather Stations






























Interactive Weather Map
Tropical Storm Tracking
New forecast layout! Learn more

10-Day Weather Forecast

Advertisements
Track Severe Weather on mobile